Time;durP1;ratioP1;P1;durP2;ratioP2;P2;SDS_P1;SDS_P2;PMS_P1;PMS_P2;Temp;Humidity;BMP_temperature;BMP_pressure;BME280_temperature;BME280_humidity;BME280_pressure;Samples;Min_cycle;Max_cycle;Signal;HPM_P1;HPM_P2
2023/06/15 00:01:14;;;;;;;3.35;2.30;;;;;;;;;;7369194;19;20014;-69
2023/06/15 00:03:42;;;;;;;3.95;2.25;;;;;;;;;;7368962;19;20040;-69
2023/06/15 00:06:07;;;;;;;4.32;2.42;;;;;;;;;;7392458;19;20005;-69
2023/06/15 00:08:33;;;;;;;7.70;2.63;;;;;;;;;;7369493;19;20007;-68
2023/06/15 00:10:58;;;;;;;4.50;2.65;;;;;;;;;;7369520;19;20011;-68
2023/06/15 00:13:23;;;;;;;4.70;2.42;;;;;;;;;;7367572;19;20542;-68
2023/06/15 00:15:48;;;;;;;4.32;2.50;;;;;;;;;;7370317;19;20010;-69
2023/06/15 00:18:14;;;;;;;4.45;2.55;;;;;;;;;;7388939;19;20013;-69
2023/06/15 00:20:39;;;;;;;4.35;2.40;;;;;;;;;;7366478;19;20362;-69
2023/06/15 00:23:08;;;;;;;3.80;2.10;;;;;;;;;;7369053;19;20460;-68
2023/06/15 00:25:33;;;;;;;4.43;2.58;;;;;;;;;;7368709;19;20015;-68
2023/06/15 00:27:59;;;;;;;5.30;2.35;;;;;;;;;;7367439;19;20742;-69
2023/06/15 00:30:24;;;;;;;4.97;2.60;;;;;;;;;;7389243;19;20014;-69
2023/06/15 00:32:49;;;;;;;3.67;2.22;;;;;;;;;;7367894;19;20493;-69
2023/06/15 00:35:15;;;;;;;5.30;2.60;;;;;;;;;;7367175;19;20018;-69
2023/06/15 00:37:40;;;;;;;4.30;2.60;;;;;;;;;;7368130;19;20022;-69
2023/06/15 00:40:06;;;;;;;4.88;2.95;;;;;;;;;;7368058;19;20018;-71
2023/06/15 00:42:31;;;;;;;4.80;2.50;;;;;;;;;;7366514;19;20086;-68
2023/06/15 00:44:57;;;;;;;4.80;2.85;;;;;;;;;;7389889;19;20006;-69
2023/06/15 00:47:23;;;;;;;8.35;2.85;;;;;;;;;;7367051;19;20018;-69
2023/06/15 00:49:48;;;;;;;4.68;2.50;;;;;;;;;;7364728;19;20714;-69
2023/06/15 00:52:16;;;;;;;3.97;2.45;;;;;;;;;;7365504;19;20006;-68
2023/06/15 00:54:43;;;;;;;5.15;2.28;;;;;;;;;;7368006;19;20011;-69
2023/06/15 00:57:10;;;;;;;4.43;2.40;;;;;;;;;;7389272;19;20415;-69
2023/06/15 00:59:37;;;;;;;4.75;2.50;;;;;;;;;;7365901;19;20015;-68
2023/06/15 01:02:03;;;;;;;4.68;2.58;;;;;;;;;;7367740;19;20574;-69
2023/06/15 01:04:31;;;;;;;6.50;2.83;;;;;;;;;;7366362;19;20090;-68
2023/06/15 01:07:02;;;;;;;5.72;2.42;;;;;;;;;;7367748;19;20010;-69
2023/06/15 01:09:29;;;;;;;6.22;2.72;;;;;;;;;;7374903;19;20002;-69
2023/06/15 01:11:59;;;;;;;6.45;2.75;;;;;;;;;;7388691;19;20010;-69
2023/06/15 01:14:28;;;;;;;4.22;2.60;;;;;;;;;;7365177;19;20529;-69
2023/06/15 01:16:59;;;;;;;5.50;2.55;;;;;;;;;;7368825;19;20017;-69
2023/06/15 01:19:37;;;;;;;5.03;3.05;;;;;;;;;;7366548;19;20002;-69
2023/06/15 01:22:14;;;;;;;5.30;2.58;;;;;;;;;;7368601;19;20023;-69
2023/06/15 01:24:50;;;;;;;4.15;2.47;;;;;;;;;;7366584;19;20017;-68
2023/06/15 01:27:18;;;;;;;4.28;2.63;;;;;;;;;;7388360;19;20628;-71
2023/06/15 01:29:44;;;;;;;4.35;2.63;;;;;;;;;;7364655;19;20038;-69
2023/06/15 01:32:10;;;;;;;4.65;2.55;;;;;;;;;;7366093;19;20442;-69
2023/06/15 01:34:36;;;;;;;5.13;2.60;;;;;;;;;;7366915;19;20480;-68
2023/06/15 01:37:01;;;;;;;3.80;2.45;;;;;;;;;;7365388;19;20010;-68
2023/06/15 01:39:26;;;;;;;5.30;2.47;;;;;;;;;;7378159;19;19999;-68
2023/06/15 01:41:53;;;;;;;3.78;2.30;;;;;;;;;;7377640;19;20007;-68
2023/06/15 01:44:18;;;;;;;6.72;2.70;;;;;;;;;;7365854;19;20030;-68
2023/06/15 01:46:43;;;;;;;4.65;2.70;;;;;;;;;;7369496;19;20018;-68
2023/06/15 01:49:09;;;;;;;6.68;2.70;;;;;;;;;;7369481;19;20007;-68
2023/06/15 01:51:34;;;;;;;4.38;2.72;;;;;;;;;;7367502;19;20002;-68
2023/06/15 01:54:00;;;;;;;4.43;2.35;;;;;;;;;;7392078;19;20002;-68
2023/06/15 01:56:26;;;;;;;4.93;2.83;;;;;;;;;;7365634;19;20010;-68
2023/06/15 01:58:51;;;;;;;4.70;2.47;;;;;;;;;;7366339;19;20780;-68
2023/06/15 02:01:16;;;;;;;6.80;2.50;;;;;;;;;;7366372;19;20084;-69
2023/06/15 02:03:45;;;;;;;5.63;2.72;;;;;;;;;;7361340;19;20003;-68
2023/06/15 02:06:10;;;;;;;3.92;2.47;;;;;;;;;;7386930;19;20359;-68
2023/06/15 02:08:36;;;;;;;4.65;2.45;;;;;;;;;;7364097;19;20017;-68
2023/06/15 02:11:01;;;;;;;6.35;2.65;;;;;;;;;;7365490;19;20385;-69
2023/06/15 02:13:27;;;;;;;4.38;2.50;;;;;;;;;;7364477;19;20422;-69
2023/06/15 02:15:52;;;;;;;4.15;2.45;;;;;;;;;;7365209;19;20031;-69
2023/06/15 02:18:18;;;;;;;5.45;3.00;;;;;;;;;;7383401;19;20002;-69
2023/06/15 02:20:44;;;;;;;6.13;2.92;;;;;;;;;;7363260;19;20010;-72
2023/06/15 02:23:13;;;;;;;4.65;2.95;;;;;;;;;;7365580;19;20011;-69
2023/06/15 02:25:39;;;;;;;5.13;2.53;;;;;;;;;;7365102;19;20114;-69
2023/06/15 02:28:04;;;;;;;5.43;2.60;;;;;;;;;;7364809;19;20014;-69
2023/06/15 02:30:30;;;;;;;4.68;2.63;;;;;;;;;;7365837;19;19995;-67
2023/06/15 02:33:00;;;;;;;5.95;2.70;;;;;;;;;;7386286;19;20007;-69
2023/06/15 02:35:25;;;;;;;6.30;2.90;;;;;;;;;;7364407;19;20019;-69
2023/06/15 02:37:51;;;;;;;4.60;2.47;;;;;;;;;;7365806;19;20489;-69
2023/06/15 02:40:16;;;;;;;7.47;3.00;;;;;;;;;;7363135;19;20369;-69
2023/06/15 02:42:42;;;;;;;6.07;2.75;;;;;;;;;;7365661;19;20014;-68
2023/06/15 02:45:08;;;;;;;7.22;3.50;;;;;;;;;;7385933;19;20007;-68
2023/06/15 02:47:34;;;;;;;4.55;2.78;;;;;;;;;;7364578;19;20014;-68
2023/06/15 02:49:59;;;;;;;5.55;2.90;;;;;;;;;;7364190;19;20023;-68
2023/06/15 02:52:31;;;;;;;7.00;2.70;;;;;;;;;;7364623;19;20007;-69
2023/06/15 02:55:00;;;;;;;4.93;2.60;;;;;;;;;;7365036;19;20014;-69
2023/06/15 02:57:26;;;;;;;7.20;2.83;;;;;;;;;;7388459;19;20480;-68
2023/06/15 02:59:51;;;;;;;4.43;2.47;;;;;;;;;;7370838;19;20006;-68
2023/06/15 03:02:20;;;;;;;5.40;2.70;;;;;;;;;;7370823;19;20030;-68
2023/06/15 03:04:50;;;;;;;6.72;2.80;;;;;;;;;;7371214;19;20027;-68
2023/06/15 03:07:20;;;;;;;6.38;2.78;;;;;;;;;;7370271;19;20002;-69
2023/06/15 03:09:50;;;;;;;4.07;2.65;;;;;;;;;;7369868;19;20039;-69
2023/06/15 03:12:16;;;;;;;4.03;2.57;;;;;;;;;;7392783;19;20741;-69
2023/06/15 03:14:44;;;;;;;5.05;3.00;;;;;;;;;;7368501;19;20002;-68
2023/06/15 03:17:12;;;;;;;4.18;2.97;;;;;;;;;;7369470;19;20011;-68
2023/06/15 03:19:39;;;;;;;7.78;3.08;;;;;;;;;;7368063;19;20031;-68
2023/06/15 03:22:05;;;;;;;7.88;3.08;;;;;;;;;;7367289;19;20041;-69
2023/06/15 03:24:32;;;;;;;5.22;3.10;;;;;;;;;;7368224;19;20549;-69
2023/06/15 03:27:01;;;;;;;4.95;2.60;;;;;;;;;;7393827;19;20082;-68
2023/06/15 03:29:27;;;;;;;4.85;2.72;;;;;;;;;;7371490;19;20014;-68
2023/06/15 03:31:53;;;;;;;4.85;2.83;;;;;;;;;;7372662;19;20123;-68
2023/06/15 03:34:18;;;;;;;5.78;2.97;;;;;;;;;;7371990;19;20013;-68
2023/06/15 03:36:43;;;;;;;7.75;3.30;;;;;;;;;;7371377;19;20002;-68
2023/06/15 03:39:09;;;;;;;6.60;3.08;;;;;;;;;;7391976;19;20010;-70
2023/06/15 03:41:37;;;;;;;4.93;2.88;;;;;;;;;;7369167;19;20041;-68
2023/06/15 03:44:02;;;;;;;9.10;2.97;;;;;;;;;;7368847;19;20015;-68
2023/06/15 03:46:28;;;;;;;5.32;2.85;;;;;;;;;;7369371;19;20014;-68
2023/06/15 03:48:53;;;;;;;7.35;2.90;;;;;;;;;;7368994;19;20017;-68
2023/06/15 03:51:18;;;;;;;5.68;3.20;;;;;;;;;;7392153;19;20006;-69
2023/06/15 03:53:44;;;;;;;5.60;3.10;;;;;;;;;;7370294;19;20006;-69
2023/06/15 03:56:10;;;;;;;5.15;2.72;;;;;;;;;;7370160;19;20365;-69
2023/06/15 03:58:35;;;;;;;9.23;3.30;;;;;;;;;;7367676;19;20014;-68
2023/06/15 04:01:01;;;;;;;8.60;2.67;;;;;;;;;;7365393;19;20010;-69
2023/06/15 04:03:26;;;;;;;6.35;2.95;;;;;;;;;;7387426;19;20018;-69
2023/06/15 04:05:52;;;;;;;8.07;3.00;;;;;;;;;;7381611;19;20341;-68
2023/06/15 04:08:18;;;;;;;11.25;3.00;;;;;;;;;;7369506;19;20353;-70
2023/06/15 04:10:44;;;;;;;4.45;2.78;;;;;;;;;;7369582;19;20082;-69
2023/06/15 04:13:09;;;;;;;5.40;3.10;;;;;;;;;;7365836;19;20011;-69
2023/06/15 04:15:34;;;;;;;6.57;2.97;;;;;;;;;;7365104;19;20377;-68
2023/06/15 04:18:00;;;;;;;5.65;2.67;;;;;;;;;;7385788;19;20014;-68
2023/06/15 04:20:29;;;;;;;6.75;2.97;;;;;;;;;;7368172;19;20059;-68
2023/06/15 04:22:56;;;;;;;4.15;2.50;;;;;;;;;;7368386;19;20003;-68
2023/06/15 04:25:21;;;;;;;5.18;2.95;;;;;;;;;;7367241;19;20637;-68
2023/06/15 04:27:47;;;;;;;5.43;2.78;;;;;;;;;;7369376;19;20012;-69
2023/06/15 04:30:16;;;;;;;7.38;2.65;;;;;;;;;;7390924;19;20003;-69
2023/06/15 04:32:44;;;;;;;7.70;2.97;;;;;;;;;;7369695;19;20107;-68
2023/06/15 04:35:16;;;;;;;4.88;2.53;;;;;;;;;;7368456;19;20090;-69
2023/06/15 04:37:41;;;;;;;5.60;2.80;;;;;;;;;;7369216;19;20395;-69
2023/06/15 04:40:10;;;;;;;6.07;3.00;;;;;;;;;;7368276;19;20017;-69
2023/06/15 04:42:40;;;;;;;7.65;2.80;;;;;;;;;;7369804;19;20006;-67
2023/06/15 04:45:07;;;;;;;4.10;2.70;;;;;;;;;;7390085;19;20070;-68
2023/06/15 04:47:32;;;;;;;4.40;2.55;;;;;;;;;;7366099;19;20014;-68
2023/06/15 04:49:58;;;;;;;5.07;2.58;;;;;;;;;;7361698;19;20003;-69
2023/06/15 04:52:23;;;;;;;5.68;2.72;;;;;;;;;;7343065;19;20014;-67
2023/06/15 04:54:51;;;;;;;7.63;2.97;;;;;;;;;;7365247;19;20566;-67
2023/06/15 04:57:16;;;;;;;14.00;2.63;;;;;;;;;;7384810;19;20009;-67
2023/06/15 04:59:41;;;;;;;4.22;2.75;;;;;;;;;;7367973;19;20473;-68
2023/06/15 05:02:07;;;;;;;4.28;2.75;;;;;;;;;;7368370;19;20018;-68
2023/06/15 05:04:32;;;;;;;5.10;2.58;;;;;;;;;;7368918;19;20061;-67
2023/06/15 05:06:59;;;;;;;5.38;2.63;;;;;;;;;;7368862;19;20040;-68
2023/06/15 05:09:24;;;;;;;4.43;2.67;;;;;;;;;;7389331;19;20006;-68
2023/06/15 05:11:49;;;;;;;7.53;2.83;;;;;;;;;;7368830;19;20361;-67
2023/06/15 05:14:15;;;;;;;6.13;2.70;;;;;;;;;;7368227;19;20372;-67
2023/06/15 05:16:40;;;;;;;4.50;2.70;;;;;;;;;;7368322;19;20762;-68
2023/06/15 05:19:06;;;;;;;8.43;2.85;;;;;;;;;;7368783;19;20085;-67
2023/06/15 05:21:32;;;;;;;4.80;2.60;;;;;;;;;;7366390;19;20004;-65
2023/06/15 05:24:00;;;;;;;5.88;2.83;;;;;;;;;;7390951;19;20042;-67
2023/06/15 05:26:31;;;;;;;4.53;2.60;;;;;;;;;;7366981;19;20002;-69
2023/06/15 05:28:57;;;;;;;6.18;2.50;;;;;;;;;;7368789;19;20030;-69
2023/06/15 05:31:22;;;;;;;4.85;2.72;;;;;;;;;;7367187;19;20007;-68
2023/06/15 05:33:47;;;;;;;6.43;2.75;;;;;;;;;;7367896;19;20848;-68
2023/06/15 05:36:12;;;;;;;8.47;2.90;;;;;;;;;;7387713;19;20058;-68
2023/06/15 05:38:38;;;;;;;3.97;2.45;;;;;;;;;;7367252;19;20856;-68
2023/06/15 05:41:03;;;;;;;4.60;2.42;;;;;;;;;;7365884;19;20015;-68
2023/06/15 05:43:28;;;;;;;7.10;3.25;;;;;;;;;;7366386;19;20030;-68
2023/06/15 05:45:54;;;;;;;8.40;2.70;;;;;;;;;;7366306;19;20352;-67
2023/06/15 05:48:19;;;;;;;4.45;2.80;;;;;;;;;;7388127;19;19994;-67
2023/06/15 05:50:45;;;;;;;4.53;2.63;;;;;;;;;;7365226;19;20010;-68
2023/06/15 05:53:10;;;;;;;6.43;2.70;;;;;;;;;;7367209;19;20003;-68
2023/06/15 05:55:36;;;;;;;5.57;2.92;;;;;;;;;;7364903;19;20005;-69
2023/06/15 05:58:01;;;;;;;2.30;1.80;;;;;;;;;;7366258;19;20010;-67
2023/06/15 06:00:30;;;;;;;7.57;2.97;;;;;;;;;;7383379;19;20074;-68
2023/06/15 06:02:56;;;;;;;7.00;2.90;;;;;;;;;;7386722;19;19999;-68
2023/06/15 06:05:23;;;;;;;5.80;2.90;;;;;;;;;;7362235;19;20006;-67
2023/06/15 06:07:48;;;;;;;4.68;2.70;;;;;;;;;;7365110;19;20018;-68
2023/06/15 06:10:17;;;;;;;8.45;2.75;;;;;;;;;;7367947;19;19998;-68
2023/06/15 06:12:42;;;;;;;4.75;2.65;;;;;;;;;;7370871;19;19995;-68
2023/06/15 06:15:08;;;;;;;5.28;2.55;;;;;;;;;;7391953;19;20006;-67
2023/06/15 06:17:33;;;;;;;7.03;3.28;;;;;;;;;;7366038;19;20023;-66
2023/06/15 06:19:59;;;;;;;4.60;2.55;;;;;;;;;;7365663;19;20508;-65
2023/06/15 06:22:24;;;;;;;5.53;2.45;;;;;;;;;;7367567;19;20007;-66
2023/06/15 06:24:49;;;;;;;7.63;3.03;;;;;;;;;;7365547;19;20118;-64
2023/06/15 06:27:15;;;;;;;5.43;2.90;;;;;;;;;;7385052;19;20003;-65
2023/06/15 06:29:41;;;;;;;2.85;2.28;;;;;;;;;;7364306;19;20023;-65
2023/06/15 06:32:07;;;;;;;5.70;2.85;;;;;;;;;;7369904;19;20306;-65
2023/06/15 06:34:35;;;;;;;4.43;2.70;;;;;;;;;;7373677;19;20007;-64
2023/06/15 06:37:01;;;;;;;5.78;2.72;;;;;;;;;;7373800;19;20010;-65
2023/06/15 06:39:26;;;;;;;7.70;2.65;;;;;;;;;;7393647;19;20346;-66
2023/06/15 06:41:54;;;;;;;4.57;2.05;;;;;;;;;;7384099;19;19999;-65
2023/06/15 06:44:19;;;;;;;5.72;3.05;;;;;;;;;;7377724;19;20065;-66
2023/06/15 06:46:45;;;;;;;4.82;2.83;;;;;;;;;;7374772;19;20401;-65
2023/06/15 06:49:10;;;;;;;7.13;3.00;;;;;;;;;;7372688;19;20009;-65
2023/06/15 06:51:37;;;;;;;7.95;3.13;;;;;;;;;;7374256;19;20002;-65
2023/06/15 06:54:05;;;;;;;6.70;2.70;;;;;;;;;;7394024;19;20085;-65
2023/06/15 06:56:31;;;;;;;5.70;2.58;;;;;;;;;;7373445;19;20010;-65
2023/06/15 06:58:56;;;;;;;7.10;2.70;;;;;;;;;;7371966;19;20600;-66
2023/06/15 07:01:21;;;;;;;6.50;2.75;;;;;;;;;;7372579;19;20477;-65
2023/06/15 07:03:47;;;;;;;4.20;2.63;;;;;;;;;;7374055;19;20020;-65
2023/06/15 07:06:12;;;;;;;4.18;2.53;;;;;;;;;;7394722;19;20465;-66
2023/06/15 07:08:37;;;;;;;10.25;2.78;;;;;;;;;;7371153;19;20361;-65
2023/06/15 07:11:05;;;;;;;6.40;2.80;;;;;;;;;;7373074;19;20006;-65
2023/06/15 07:13:31;;;;;;;4.30;2.53;;;;;;;;;;7371943;19;20087;-64
2023/06/15 07:15:57;;;;;;;5.60;2.75;;;;;;;;;;7361677;19;20959;-64
2023/06/15 07:18:23;;;;;;;4.28;2.70;;;;;;;;;;7391781;19;20463;-65
2023/06/15 07:20:53;;;;;;;9.30;2.90;;;;;;;;;;7371099;19;20051;-67
2023/06/15 07:23:20;;;;;;;7.38;2.80;;;;;;;;;;7371371;19;19999;-65
2023/06/15 07:25:46;;;;;;;4.85;2.45;;;;;;;;;;7373267;19;20010;-65
2023/06/15 07:28:11;;;;;;;7.20;2.53;;;;;;;;;;7370868;19;20003;-66
2023/06/15 07:30:36;;;;;;;4.20;2.22;;;;;;;;;;7371692;19;20002;-66
2023/06/15 07:33:02;;;;;;;8.10;3.00;;;;;;;;;;7394468;19;20015;-65
2023/06/15 07:35:27;;;;;;;6.30;2.88;;;;;;;;;;7372384;19;20011;-66
2023/06/15 07:37:52;;;;;;;6.53;2.65;;;;;;;;;;7370701;19;20072;-65
2023/06/15 07:40:17;;;;;;;5.53;2.72;;;;;;;;;;7371150;19;20019;-65
2023/06/15 07:42:43;;;;;;;5.25;3.00;;;;;;;;;;7370448;19;19999;-65
2023/06/15 07:45:09;;;;;;;4.40;2.83;;;;;;;;;;7389893;19;20066;-65
2023/06/15 07:47:34;;;;;;;5.13;2.45;;;;;;;;;;7370128;19;20014;-65
2023/06/15 07:49:59;;;;;;;5.68;2.78;;;;;;;;;;7360385;19;20077;-65
2023/06/15 07:52:25;;;;;;;5.28;2.67;;;;;;;;;;7370004;19;20010;-65
2023/06/15 07:54:50;;;;;;;4.55;2.60;;;;;;;;;;7370029;19;20070;-66
2023/06/15 07:57:16;;;;;;;7.03;2.90;;;;;;;;;;7392008;19;20078;-65
2023/06/15 07:59:41;;;;;;;4.38;2.70;;;;;;;;;;7370663;19;20020;-66
2023/06/15 08:02:06;;;;;;;6.88;2.70;;;;;;;;;;7369816;19;20026;-66
2023/06/15 08:04:32;;;;;;;4.90;2.70;;;;;;;;;;7372056;19;19999;-66
2023/06/15 08:06:57;;;;;;;6.35;2.80;;;;;;;;;;7371431;19;20002;-65
2023/06/15 08:09:22;;;;;;;5.10;3.00;;;;;;;;;;7393299;19;20471;-66
2023/06/15 08:11:49;;;;;;;6.60;2.97;;;;;;;;;;7374718;19;20006;-65
2023/06/15 08:14:14;;;;;;;5.60;2.80;;;;;;;;;;7372732;19;20010;-65
2023/06/15 08:16:40;;;;;;;8.80;3.15;;;;;;;;;;7371725;19;20006;-65
2023/06/15 08:19:06;;;;;;;6.70;2.70;;;;;;;;;;7369943;19;20011;-65
2023/06/15 08:21:32;;;;;;;6.30;2.92;;;;;;;;;;7369451;19;20016;-66
2023/06/15 08:23:57;;;;;;;4.78;2.78;;;;;;;;;;7392662;19;19998;-66
2023/06/15 08:26:23;;;;;;;5.57;2.90;;;;;;;;;;7370170;19;20487;-66
2023/06/15 08:28:48;;;;;;;4.95;2.83;;;;;;;;;;7370393;19;20074;-66
2023/06/15 08:31:14;;;;;;;6.45;2.58;;;;;;;;;;7369614;19;20007;-66
2023/06/15 08:33:39;;;;;;;4.43;2.67;;;;;;;;;;7370428;19;20341;-66
2023/06/15 08:36:05;;;;;;;4.88;2.85;;;;;;;;;;7392377;19;20088;-65
2023/06/15 08:38:30;;;;;;;5.07;2.75;;;;;;;;;;7369309;19;19999;-66
2023/06/15 08:40:55;;;;;;;4.82;2.75;;;;;;;;;;7363388;19;20002;-65
2023/06/15 08:43:21;;;;;;;3.17;2.10;;;;;;;;;;7355492;19;20014;-66
2023/06/15 08:45:48;;;;;;;9.23;2.72;;;;;;;;;;7362809;19;20461;-65
2023/06/15 08:48:16;;;;;;;5.00;2.78;;;;;;;;;;7389661;19;20715;-66
2023/06/15 08:50:44;;;;;;;6.82;2.58;;;;;;;;;;7368573;19;20437;-65
2023/06/15 08:53:11;;;;;;;3.70;2.28;;;;;;;;;;7369505;19;20786;-65
2023/06/15 08:55:37;;;;;;;6.57;3.17;;;;;;;;;;7369061;19;20401;-65
2023/06/15 08:58:05;;;;;;;5.45;3.10;;;;;;;;;;7363401;19;20032;-66
2023/06/15 09:00:30;;;;;;;4.40;2.45;;;;;;;;;;7365884;19;20002;-65
2023/06/15 09:03:00;;;;;;;6.28;2.90;;;;;;;;;;7391356;19;20012;-65
2023/06/15 09:05:26;;;;;;;;;;;;;;;;;;7368468;19;20016;-66
2023/06/15 09:07:52;;;;;;;4.05;2.67;;;;;;;;;;7369725;19;20363;-66
2023/06/15 09:10:18;;;;;;;4.43;2.83;;;;;;;;;;7368699;19;20010;-66
2023/06/15 09:13:04;;;;;;;4.95;2.70;;;;;;;;;;7367422;19;19995;-65
2023/06/15 09:15:30;;;;;;;6.07;2.80;;;;;;;;;;7368263;19;20013;-66
2023/06/15 09:17:58;;;;;;;4.40;2.70;;;;;;;;;;7389339;19;20014;-66
2023/06/15 09:20:25;;;;;;;6.85;2.88;;;;;;;;;;7367008;19;20003;-65
2023/06/15 09:22:51;;;;;;;8.55;2.63;;;;;;;;;;7369180;19;20045;-66
2023/06/15 09:25:19;;;;;;;8.60;2.80;;;;;;;;;;7367037;19;20073;-66
2023/06/15 09:27:58;;;;;;;5.60;2.70;;;;;;;;;;7367043;19;20003;-65
2023/06/15 09:30:37;;;;;;;5.32;2.55;;;;;;;;;;7390276;19;20022;-66
2023/06/15 09:33:14;;;;;;;5.45;2.90;;;;;;;;;;7368579;19;20102;-66
2023/06/15 09:36:02;;;;;;;10.35;5.22;;;;;;;;;;7367442;19;20017;-66
2023/06/15 09:38:30;;;;;;;6.05;2.95;;;;;;;;;;7368087;19;20077;-66
2023/06/15 09:40:56;;;;;;;4.55;2.50;;;;;;;;;;7368440;19;20019;-66
2023/06/15 09:43:22;;;;;;;8.10;2.90;;;;;;;;;;7368392;19;20002;-65
2023/06/15 09:45:51;;;;;;;5.95;3.15;;;;;;;;;;7368099;19;20003;-66
2023/06/15 09:48:17;;;;;;;8.85;2.53;;;;;;;;;;7388285;19;20006;-66
2023/06/15 09:50:42;;;;;;;4.07;2.65;;;;;;;;;;7367660;19;20524;-65
2023/06/15 09:53:11;;;;;;;5.82;2.90;;;;;;;;;;7368252;19;20022;-65
2023/06/15 09:55:43;;;;;;;8.80;2.90;;;;;;;;;;7368302;19;20002;-65
2023/06/15 09:58:10;;;;;;;5.80;3.10;;;;;;;;;;7367575;19;20351;-64
2023/06/15 10:00:35;;;;;;;5.15;3.63;;;;;;;;;;7366016;19;20055;-66
2023/06/15 10:03:08;;;;;;;9.43;3.35;;;;;;;;;;7390342;19;20010;-66
2023/06/15 10:05:38;;;;;;;5.15;2.70;;;;;;;;;;7366511;19;19998;-66
2023/06/15 10:08:11;;;;;;;5.95;3.00;;;;;;;;;;7366350;19;20017;-67
2023/06/15 10:10:37;;;;;;;7.47;3.00;;;;;;;;;;7366579;19;20006;-65
2023/06/15 10:13:07;;;;;;;5.82;3.28;;;;;;;;;;7370344;19;20429;-66
2023/06/15 10:15:34;;;;;;;9.25;3.25;;;;;;;;;;7369548;19;19994;-66
2023/06/15 10:18:03;;;;;;;5.18;2.90;;;;;;;;;;7388798;19;20019;-67
2023/06/15 10:20:29;;;;;;;8.10;2.90;;;;;;;;;;7366156;19;20110;-66
2023/06/15 10:23:13;;;;;;;6.90;2.85;;;;;;;;;;7366834;19;20074;-67
2023/06/15 10:25:42;;;;;;;7.10;3.38;;;;;;;;;;7367202;19;20065;-67
2023/06/15 10:28:11;;;;;;;6.40;3.25;;;;;;;;;;7366600;19;20002;-66
2023/06/15 10:30:49;;;;;;;9.30;3.38;;;;;;;;;;7366657;19;20002;-67
2023/06/15 10:33:20;;;;;;;7.88;4.68;;;;;;;;;;7388748;19;20002;-66
2023/06/15 10:36:04;;;;;;;7.30;2.90;;;;;;;;;;7365657;19;20003;-66
2023/06/15 10:38:44;;;;;;;9.13;5.57;;;;;;;;;;7363737;19;19999;-66
2023/06/15 10:41:10;;;;;;;10.40;4.47;;;;;;;;;;7365035;19;20086;-66
2023/06/15 10:43:35;;;;;;;7.25;3.13;;;;;;;;;;7366123;19;19999;-65
2023/06/15 10:46:06;;;;;;;12.93;5.90;;;;;;;;;;7365134;19;20710;-67
2023/06/15 10:48:37;;;;;;;5.78;3.40;;;;;;;;;;7364122;19;20438;-65
2023/06/15 10:51:04;;;;;;;7.18;3.00;;;;;;;;;;7385761;19;20043;-65
2023/06/15 10:53:36;;;;;;;5.65;3.08;;;;;;;;;;7366144;19;20014;-66
2023/06/15 10:56:08;;;;;;;7.07;3.00;;;;;;;;;;7367053;19;20011;-66
2023/06/15 10:58:33;;;;;;;8.60;3.25;;;;;;;;;;7364216;19;20441;-66
2023/06/15 11:01:11;;;;;;;5.45;2.92;;;;;;;;;;7364346;19;20079;-65
2023/06/15 11:03:41;;;;;;;6.85;3.22;;;;;;;;;;7366144;19;20006;-67
2023/06/15 11:06:12;;;;;;;12.45;3.50;;;;;;;;;;7387725;19;20752;-66
2023/06/15 11:08:48;;;;;;;10.88;3.10;;;;;;;;;;7364801;19;20014;-66
2023/06/15 11:11:15;;;;;;;7.22;3.05;;;;;;;;;;7365326;19;20019;-66
2023/06/15 11:14:00;;;;;;;5.00;3.03;;;;;;;;;;7365407;19;20018;-65
2023/06/15 11:16:37;;;;;;;5.25;2.90;;;;;;;;;;7358523;19;20102;-66
2023/06/15 11:19:11;;;;;;;10.77;3.10;;;;;;;;;;7372241;19;20002;-66
2023/06/15 11:21:59;;;;;;;7.50;3.22;;;;;;;;;;7371051;19;20011;-65
2023/06/15 11:24:26;;;;;;;5.28;2.83;;;;;;;;;;7395347;19;20358;-66
2023/06/15 11:26:52;;;;;;;7.00;2.97;;;;;;;;;;7372780;19;20019;-65
2023/06/15 11:29:25;;;;;;;6.90;2.90;;;;;;;;;;7369973;19;20006;-66
2023/06/15 11:31:54;;;;;;;5.40;3.00;;;;;;;;;;7373500;19;20109;-66
2023/06/15 11:34:19;;;;;;;4.63;2.85;;;;;;;;;;7371246;19;20309;-66
2023/06/15 11:36:45;;;;;;;5.15;3.08;;;;;;;;;;7371619;19;20003;-66
2023/06/15 11:39:21;;;;;;;5.53;3.10;;;;;;;;;;7393569;19;20039;-67
2023/06/15 11:41:50;;;;;;;5.93;3.15;;;;;;;;;;7369637;19;20870;-66
2023/06/15 11:44:18;;;;;;;6.03;3.10;;;;;;;;;;7364838;19;20300;-66
2023/06/15 11:46:51;;;;;;;7.30;2.72;;;;;;;;;;7369947;19;20006;-66
2023/06/15 11:49:17;;;;;;;6.10;3.00;;;;;;;;;;7371164;19;20013;-66
2023/06/15 11:51:46;;;;;;;6.63;3.10;;;;;;;;;;7371430;19;20003;-66
2023/06/15 11:54:12;;;;;;;7.05;2.80;;;;;;;;;;7394737;19;20101;-66
2023/06/15 11:56:46;;;;;;;6.25;2.75;;;;;;;;;;7371186;19;20011;-66
2023/06/15 11:59:14;;;;;;;6.97;2.92;;;;;;;;;;7370612;19;20010;-66
2023/06/15 12:01:40;;;;;;;9.88;3.13;;;;;;;;;;7370474;19;20473;-66
2023/06/15 12:04:12;;;;;;;5.43;2.83;;;;;;;;;;7370666;19;20011;-69
2023/06/15 12:06:42;;;;;;;7.45;2.92;;;;;;;;;;7369565;19;20105;-70
2023/06/15 12:09:08;;;;;;;12.03;3.10;;;;;;;;;;7391776;19;20374;-69
2023/06/15 12:11:34;;;;;;;9.30;2.45;;;;;;;;;;7371021;19;20025;-70
2023/06/15 12:14:07;;;;;;;8.82;2.78;;;;;;;;;;7371756;19;20010;-69
2023/06/15 12:16:33;;;;;;;6.97;2.83;;;;;;;;;;7376068;19;20010;-68
2023/06/15 12:18:59;;;;;;;5.32;2.97;;;;;;;;;;7372449;19;20031;-70
2023/06/15 12:21:32;;;;;;;7.15;2.90;;;;;;;;;;7392541;19;20011;-68
2023/06/15 12:23:58;;;;;;;9.48;2.75;;;;;;;;;;7370420;19;19998;-69
2023/06/15 12:26:32;;;;;;;4.95;2.63;;;;;;;;;;7368576;19;20689;-70
2023/06/15 12:29:00;;;;;;;4.95;2.63;;;;;;;;;;7366282;19;20006;-72
2023/06/15 12:31:33;;;;;;;5.93;2.70;;;;;;;;;;7370757;19;20003;-76
2023/06/15 12:34:05;;;;;;;8.13;2.47;;;;;;;;;;7371122;19;20090;-76
2023/06/15 12:36:31;;;;;;;4.93;2.75;;;;;;;;;;7370176;19;20422;-70
2023/06/15 12:38:56;;;;;;;7.72;2.75;;;;;;;;;;7391113;19;19995;-70
2023/06/15 12:41:22;;;;;;;5.15;2.50;;;;;;;;;;7369312;19;20093;-74
2023/06/15 12:43:50;;;;;;;6.40;2.90;;;;;;;;;;7369678;19;20100;-69
2023/06/15 12:46:18;;;;;;;7.63;3.10;;;;;;;;;;7368991;19;20113;-71
2023/06/15 12:48:43;;;;;;;25.80;5.18;;;;;;;;;;7368441;19;20364;-71
2023/06/15 12:51:09;;;;;;;27.17;5.40;;;;;;;;;;7390221;19;20002;-72
2023/06/15 12:53:34;;;;;;;16.53;4.33;;;;;;;;;;7371070;19;20003;-71
2023/06/15 12:56:00;;;;;;;24.13;4.90;;;;;;;;;;7369610;19;20232;-73
2023/06/15 12:58:25;;;;;;;9.07;3.50;;;;;;;;;;7367455;19;20002;-72
2023/06/15 13:00:50;;;;;;;6.97;2.87;;;;;;;;;;7373809;19;20014;-73
2023/06/15 13:03:16;;;;;;;13.17;4.00;;;;;;;;;;7392344;19;20267;-72
2023/06/15 13:05:42;;;;;;;6.22;3.35;;;;;;;;;;7370169;19;20828;-68
2023/06/15 13:08:08;;;;;;;7.85;2.75;;;;;;;;;;7370732;19;20007;-71
2023/06/15 13:10:34;;;;;;;7.43;2.78;;;;;;;;;;7368175;19;20025;-70
2023/06/15 13:13:00;;;;;;;4.60;2.53;;;;;;;;;;7368468;19;20776;-68
2023/06/15 13:15:30;;;;;;;8.13;2.80;;;;;;;;;;7392501;19;20010;-72
2023/06/15 13:17:56;;;;;;;;;;;;;;;;;;7369324;19;20364;-71
2023/06/15 13:20:22;;;;;;;4.50;2.88;;;;;;;;;;7368839;19;20373;-70
2023/06/15 13:22:49;;;;;;;7.03;3.03;;;;;;;;;;7370190;19;20014;-71
2023/06/15 13:25:15;;;;;;;5.60;2.80;;;;;;;;;;7373700;19;20014;-76
2023/06/15 13:27:40;;;;;;;4.68;2.50;;;;;;;;;;7369000;19;20010;-71
2023/06/15 13:30:12;;;;;;;4.90;2.85;;;;;;;;;;7392394;19;20019;-70
2023/06/15 13:32:40;;;;;;;5.97;3.00;;;;;;;;;;7371623;19;19999;-72
2023/06/15 13:35:07;;;;;;;8.00;3.20;;;;;;;;;;7371198;19;20006;-72
2023/06/15 13:37:34;;;;;;;7.05;3.05;;;;;;;;;;7371088;19;20006;-70
2023/06/15 13:40:01;;;;;;;6.00;3.30;;;;;;;;;;7370782;19;20017;-73
2023/06/15 13:42:27;;;;;;;6.80;3.40;;;;;;;;;;7388777;19;20049;-75
2023/06/15 13:44:53;;;;;;;7.03;3.70;;;;;;;;;;7368698;19;20011;-77
2023/06/15 13:47:20;;;;;;;5.43;2.45;;;;;;;;;;7367581;19;20010;-72
2023/06/15 13:49:46;;;;;;;9.48;2.63;;;;;;;;;;7368050;19;20085;-73
2023/06/15 13:52:12;;;;;;;7.30;2.20;;;;;;;;;;7368402;19;20007;-73
2023/06/15 13:54:38;;;;;;;3.00;2.20;;;;;;;;;;7368793;19;20011;-72
2023/06/15 13:57:03;;;;;;;5.25;2.53;;;;;;;;;;7387539;19;20476;-68
2023/06/15 13:59:30;;;;;;;7.18;2.72;;;;;;;;;;7366678;19;20010;-68
2023/06/15 14:01:56;;;;;;;8.98;2.78;;;;;;;;;;7367951;19;20010;-73
2023/06/15 14:04:22;;;;;;;5.38;2.88;;;;;;;;;;7368755;19;20017;-74
2023/06/15 14:06:48;;;;;;;4.07;2.28;;;;;;;;;;7368459;19;20036;-73
2023/06/15 14:09:13;;;;;;;7.88;3.20;;;;;;;;;;7389566;19;20011;-73
2023/06/15 14:11:38;;;;;;;13.05;3.25;;;;;;;;;;7366640;19;20003;-77
2023/06/15 14:14:04;;;;;;;6.10;3.13;;;;;;;;;;7375754;19;20018;-73
2023/06/15 14:16:29;;;;;;;9.02;3.22;;;;;;;;;;7368483;19;20057;-73
2023/06/15 14:18:57;;;;;;;6.72;3.08;;;;;;;;;;7367512;19;20018;-71
2023/06/15 14:21:23;;;;;;;7.45;2.95;;;;;;;;;;7388263;19;20006;-74
2023/06/15 14:23:48;;;;;;;6.50;2.95;;;;;;;;;;7372414;19;20010;-73
2023/06/15 14:26:13;;;;;;;8.10;2.95;;;;;;;;;;7381332;19;20020;-72
2023/06/15 14:28:39;;;;;;;8.70;2.53;;;;;;;;;;7378185;19;20006;-73
2023/06/15 14:31:04;;;;;;;9.65;3.42;;;;;;;;;;7372993;19;20471;-73
2023/06/15 14:33:30;;;;;;;7.43;2.90;;;;;;;;;;7367752;19;20002;-73
2023/06/15 14:35:55;;;;;;;7.30;3.00;;;;;;;;;;7389159;19;20010;-73
2023/06/15 14:38:21;;;;;;;6.55;2.92;;;;;;;;;;7367420;19;20003;-73
2023/06/15 14:40:47;;;;;;;5.32;3.05;;;;;;;;;;7367628;19;20006;-74
2023/06/15 14:43:12;;;;;;;9.68;3.60;;;;;;;;;;7369945;19;20121;-74